createdAt,value
2018-05-08T00:00:09.591Z,67.60
2018-05-08T00:00:41.021Z,67.60
2018-05-08T00:01:12.420Z,67.60
2018-05-08T00:01:44.563Z,67.60
2018-05-08T00:02:16.004Z,67.50
2018-05-08T00:02:47.405Z,67.50
2018-05-08T00:03:18.800Z,67.50
2018-05-08T00:03:50.947Z,67.50
2018-05-08T00:04:22.375Z,67.40
2018-05-08T00:04:53.771Z,67.40
2018-05-08T00:05:25.231Z,67.30
2018-05-08T00:05:56.638Z,67.40
2018-05-08T00:06:28.060Z,67.50
2018-05-08T00:06:59.482Z,67.60
2018-05-08T00:07:31.654Z,67.80
2018-05-08T00:08:04.539Z,67.70
2018-05-08T00:08:36.679Z,67.90
2018-05-08T00:09:08.111Z,67.90
2018-05-08T00:09:39.544Z,68.00
2018-05-08T00:10:10.984Z,67.90
2018-05-08T00:10:42.407Z,67.70
2018-05-08T00:11:13.833Z,67.80
2018-05-08T00:11:45.236Z,68.00
2018-05-08T00:12:16.635Z,68.10
2018-05-08T00:12:48.044Z,67.90
2018-05-08T00:13:20.200Z,67.70
2018-05-08T00:13:52.343Z,67.90
2018-05-08T00:14:25.220Z,68.40
2018-05-08T00:14:56.618Z,67.80
2018-05-08T00:15:28.022Z,67.80
2018-05-08T00:15:59.464Z,67.60
2018-05-08T00:16:31.616Z,67.50
2018-05-08T00:17:03.775Z,67.60
2018-05-08T00:17:35.916Z,67.50
2018-05-08T00:18:07.351Z,67.50
2018-05-08T00:18:38.755Z,67.60
2018-05-08T00:19:10.156Z,67.70
2018-05-08T00:19:42.299Z,67.80
2018-05-08T00:20:15.186Z,67.90
2018-05-08T00:20:46.607Z,67.90
2018-05-08T00:21:18.051Z,67.90
2018-05-08T00:21:49.452Z,67.90
2018-05-08T00:22:20.852Z,67.90
2018-05-08T00:22:52.248Z,67.80
2018-05-08T00:23:23.636Z,67.60
2018-05-08T00:23:55.784Z,67.70
2018-05-08T00:24:27.184Z,67.70
2018-05-08T00:24:58.588Z,67.70
2018-05-08T00:25:30.745Z,67.60
2018-05-08T00:26:02.932Z,67.50
2018-05-08T00:26:34.356Z,67.50
2018-05-08T00:27:06.507Z,67.50
2018-05-08T00:27:37.916Z,67.50
2018-05-08T00:28:09.322Z,67.60
2018-05-08T00:28:40.720Z,67.50
2018-05-08T00:29:12.896Z,67.50
2018-05-08T00:29:45.033Z,67.50
2018-05-08T00:30:17.203Z,67.50
2018-05-08T00:30:49.339Z,67.60
2018-05-08T00:31:20.744Z,67.60
2018-05-08T00:31:52.171Z,67.60
2018-05-08T00:32:23.563Z,67.50
2018-05-08T00:32:54.964Z,67.60
2018-05-08T00:33:26.368Z,67.60
2018-05-08T00:33:57.758Z,67.70
2018-05-08T00:34:29.153Z,68.00
2018-05-08T00:35:00.547Z,67.60
2018-05-08T00:35:31.944Z,67.60
2018-05-08T00:36:04.096Z,67.80
2018-05-08T00:36:36.243Z,68.00
2018-05-08T00:37:08.408Z,68.60
2018-05-08T00:37:40.548Z,68.10
2018-05-08T00:38:11.953Z,68.10
2018-05-08T00:38:43.338Z,68.20
2018-05-08T00:39:14.732Z,68.20
2018-05-08T00:39:46.128Z,68.30
2018-05-08T00:40:18.267Z,68.40
2018-05-08T00:40:50.431Z,68.30
2018-05-08T00:41:21.845Z,68.30
2018-05-08T00:41:53.261Z,68.30
2018-05-08T00:42:24.703Z,68.20
2018-05-08T00:42:56.117Z,68.10
2018-05-08T00:43:27.544Z,68.10
2018-05-08T00:43:58.944Z,68.10
2018-05-08T00:44:30.344Z,68.10
2018-05-08T00:45:02.532Z,68.10
2018-05-08T00:45:33.932Z,68.10
2018-05-08T00:46:05.332Z,68.00
2018-05-08T00:46:36.740Z,68.10
2018-05-08T00:47:08.168Z,68.10
2018-05-08T00:47:40.331Z,68.20
2018-05-08T00:48:12.472Z,68.30
2018-05-08T00:48:44.648Z,68.20
2018-05-08T00:49:16.792Z,68.20
2018-05-08T00:49:48.192Z,68.10
2018-05-08T00:50:19.596Z,68.20
2018-05-08T00:50:51.023Z,68.20
2018-05-08T00:51:23.163Z,68.90
2018-05-08T00:51:54.563Z,68.30
2018-05-08T00:52:25.986Z,68.30
2018-05-08T00:52:58.164Z,68.30
2018-05-08T00:53:29.559Z,68.30
2018-05-08T00:54:00.959Z,68.40
2018-05-08T00:54:44.740Z,68.30
2018-05-08T00:55:16.091Z,68.30
2018-05-08T00:55:48.232Z,68.40
2018-05-08T00:56:20.391Z,68.40
2018-05-08T00:56:52.544Z,68.50
2018-05-08T00:57:23.984Z,68.50
2018-05-08T00:57:55.399Z,68.40
2018-05-08T00:58:26.824Z,68.40
2018-05-08T00:58:58.220Z,68.50
2018-05-08T00:59:29.620Z,68.70
2018-05-08T01:00:01.019Z,68.60
2018-05-08T01:00:32.476Z,68.60
2018-05-08T01:01:03.903Z,68.60
2018-05-08T01:01:35.319Z,68.40
2018-05-08T01:02:06.724Z,68.40
2018-05-08T01:02:38.167Z,68.30
2018-05-08T01:03:09.580Z,68.20
2018-05-08T01:03:41.754Z,68.30
2018-05-08T01:04:13.166Z,68.30
2018-05-08T01:04:45.332Z,68.20
2018-05-08T01:05:16.811Z,68.20
2018-05-08T01:05:48.211Z,68.10
2018-05-08T01:06:20.351Z,68.20
2018-05-08T01:06:51.775Z,68.10
2018-05-08T01:07:23.184Z,68.10
2018-05-08T01:07:54.588Z,68.10
2018-05-08T01:08:26.720Z,68.30
2018-05-08T01:08:58.155Z,69.20
2018-05-08T01:09:29.552Z,68.50
2018-05-08T01:10:01.185Z,68.50
2018-05-08T01:10:33.328Z,69.50
2018-05-08T01:11:04.747Z,69.50
2018-05-08T01:11:36.172Z,69.60
2018-05-08T01:12:07.603Z,69.60
2018-05-08T01:12:39.016Z,70.20
2018-05-08T01:13:10.420Z,69.70
2018-05-08T01:13:41.828Z,69.70
2018-05-08T01:14:13.276Z,69.60
2018-05-08T01:14:44.681Z,69.60
2018-05-08T01:15:16.816Z,69.70
2018-05-08T01:15:48.238Z,69.70
2018-05-08T01:16:19.673Z,69.70
2018-05-08T01:16:51.073Z,69.80
2018-05-08T01:17:22.480Z,69.80
2018-05-08T01:17:53.875Z,69.80
2018-05-08T01:18:25.330Z,69.90
2018-05-08T01:18:56.741Z,69.80
2018-05-08T01:19:28.235Z,69.80
2018-05-08T01:20:00.416Z,69.80
2018-05-08T01:20:32.560Z,69.90
2018-05-08T01:21:03.956Z,69.90
2018-05-08T01:21:35.343Z,70.00
2018-05-08T01:22:06.769Z,69.90
2018-05-08T01:22:38.186Z,69.80
2018-05-08T01:23:09.596Z,69.80
2018-05-08T01:23:41.740Z,70.00
2018-05-08T01:24:14.648Z,70.00
2018-05-08T01:24:46.088Z,70.00
2018-05-08T01:25:17.516Z,70.10
2018-05-08T01:25:49.657Z,70.00
2018-05-08T01:26:21.051Z,70.00
2018-05-08T01:26:52.447Z,70.00
2018-05-08T01:27:24.583Z,70.00
2018-05-08T01:27:55.971Z,69.90
2018-05-08T01:28:27.372Z,70.00
2018-05-08T01:28:58.776Z,69.80
2018-05-08T01:29:30.179Z,69.80
2018-05-08T01:30:02.396Z,69.90
2018-05-08T01:30:33.807Z,69.90
2018-05-08T01:31:05.203Z,70.00
2018-05-08T01:31:36.650Z,70.00
2018-05-08T01:32:08.032Z,70.00
2018-05-08T01:32:39.439Z,70.00
2018-05-08T01:33:11.603Z,70.10
2018-05-08T01:33:42.991Z,70.00
2018-05-08T01:34:14.395Z,69.90
2018-05-08T01:34:46.539Z,69.80
2018-05-08T01:35:18.700Z,70.30
2018-05-08T01:35:50.834Z,70.20
2018-05-08T01:36:22.996Z,69.50
2018-05-08T01:36:54.392Z,69.50
2018-05-08T01:37:25.816Z,69.50
2018-05-08T01:37:57.957Z,69.60
2018-05-08T01:38:30.111Z,70.20
2018-05-08T01:39:02.325Z,69.70
2018-05-08T01:39:33.744Z,69.70
2018-05-08T01:40:05.135Z,69.90
2018-05-08T01:40:36.584Z,69.90
2018-05-08T01:41:07.983Z,70.00
2018-05-08T01:41:39.423Z,70.10
2018-05-08T01:42:10.843Z,70.20
2018-05-08T01:42:43.022Z,70.30
2018-05-08T01:43:14.444Z,70.20
2018-05-08T01:43:46.567Z,70.60
2018-05-08T01:44:17.991Z,70.50
2018-05-08T01:44:49.416Z,70.40
2018-05-08T01:45:20.824Z,70.50
2018-05-08T01:45:52.315Z,70.50
2018-05-08T01:46:23.744Z,70.70
2018-05-08T01:46:55.179Z,70.70
2018-05-08T01:47:26.633Z,70.90
2018-05-08T01:47:58.060Z,71.00
2018-05-08T01:48:29.458Z,71.20
2018-05-08T01:49:00.892Z,71.20
2018-05-08T01:49:32.324Z,71.10
2018-05-08T01:50:03.743Z,70.90
2018-05-08T01:50:35.144Z,71.00
2018-05-08T01:51:06.568Z,71.00
2018-05-08T01:51:37.967Z,71.10
2018-05-08T01:52:09.474Z,71.00
2018-05-08T01:52:41.617Z,70.90
2018-05-08T01:53:13.775Z,71.60
2018-05-08T01:53:45.172Z,70.90
2018-05-08T01:54:16.610Z,70.70
2018-05-08T01:54:48.016Z,70.70
2018-05-08T01:55:20.158Z,70.70
2018-05-08T01:55:52.295Z,70.60
2018-05-08T01:56:23.944Z,70.60
2018-05-08T01:56:55.335Z,70.50
2018-05-08T01:57:26.743Z,70.60
2018-05-08T01:57:58.896Z,70.60
2018-05-08T01:58:30.287Z,70.50
2018-05-08T01:59:01.695Z,70.50
2018-05-08T01:59:33.088Z,70.40
2018-05-08T02:00:04.515Z,70.50
2018-05-08T02:00:36.047Z,70.60
2018-05-08T02:01:07.457Z,70.60
2018-05-08T02:01:39.652Z,70.40
2018-05-08T02:02:11.068Z,70.40
2018-05-08T02:02:43.208Z,70.50
2018-05-08T02:03:15.364Z,70.40
2018-05-08T02:03:47.532Z,70.40
2018-05-08T02:04:18.991Z,70.40
2018-05-08T02:04:50.432Z,70.30
2018-05-08T02:05:22.612Z,70.50
2018-05-08T02:05:54.015Z,70.40
2018-05-08T02:06:26.163Z,70.60
2018-05-08T02:06:58.379Z,70.50
2018-05-08T02:07:29.853Z,70.50
2018-05-08T02:08:01.253Z,70.60
2018-05-08T02:08:32.667Z,70.70
2018-05-08T02:09:04.851Z,70.90
2018-05-08T02:09:36.295Z,70.90
2018-05-08T02:10:07.730Z,70.90
2018-05-08T02:10:39.152Z,70.90
2018-05-08T02:11:10.568Z,71.50
2018-05-08T02:11:41.973Z,70.90
2018-05-08T02:12:13.404Z,70.80
2018-05-08T02:12:44.819Z,70.70
2018-05-08T02:13:16.980Z,70.90
2018-05-08T02:13:49.124Z,70.70
2018-05-08T02:14:20.511Z,70.70
2018-05-08T02:14:51.911Z,70.70
2018-05-08T02:15:23.331Z,70.60
2018-05-08T02:15:54.744Z,70.60
2018-05-08T02:16:26.176Z,70.70
2018-05-08T02:16:57.579Z,70.70
2018-05-08T02:17:29.763Z,70.50
2018-05-08T02:18:01.155Z,70.60
2018-05-08T02:18:32.765Z,70.50
2018-05-08T02:19:04.169Z,70.50
2018-05-08T02:19:36.311Z,70.70
2018-05-08T02:20:07.699Z,70.50
2018-05-08T02:20:39.104Z,70.50
2018-05-08T02:21:11.263Z,71.50
2018-05-08T02:21:42.664Z,70.80
2018-05-08T02:22:14.075Z,70.90
2018-05-08T02:22:45.535Z,70.90
2018-05-08T02:23:16.937Z,70.80
2018-05-08T02:23:49.079Z,70.70
2018-05-08T02:24:21.235Z,70.60
2018-05-08T02:24:53.403Z,70.40
2018-05-08T02:25:24.813Z,70.40
2018-05-08T02:25:56.229Z,70.30
2018-05-08T02:26:27.648Z,70.20
2018-05-08T02:26:59.811Z,70.20
2018-05-08T02:27:31.207Z,70.20
2018-05-08T02:28:02.691Z,70.10
2018-05-08T02:28:34.827Z,70.00
2018-05-08T02:29:06.222Z,70.00
2018-05-08T02:29:37.648Z,70.00
2018-05-08T02:30:09.064Z,69.80
2018-05-08T02:30:40.488Z,69.80
2018-05-08T02:31:11.892Z,69.70
2018-05-08T02:31:43.284Z,69.70
2018-05-08T02:32:14.680Z,69.70
2018-05-08T02:32:46.100Z,70.30
2018-05-08T02:33:17.556Z,69.90
2018-05-08T02:33:48.989Z,69.90
2018-05-08T02:34:20.411Z,70.00
2018-05-08T02:34:51.836Z,70.10
2018-05-08T02:35:23.240Z,70.10
2018-05-08T02:35:54.628Z,70.80
2018-05-08T02:36:26.773Z,70.20
2018-05-08T02:36:58.176Z,70.20
2018-05-08T02:37:29.588Z,70.80
2018-05-08T02:38:01.004Z,70.20
2018-05-08T02:38:33.188Z,70.30
2018-05-08T02:39:04.632Z,70.30
2018-05-08T02:39:36.024Z,70.40
2018-05-08T02:40:07.428Z,70.50
2018-05-08T02:40:38.824Z,70.50
2018-05-08T02:41:10.288Z,70.60
2018-05-08T02:41:41.640Z,70.70
2018-05-08T02:42:13.057Z,70.60
2018-05-08T02:42:44.469Z,70.60
2018-05-08T02:43:16.640Z,70.30
2018-05-08T02:43:48.076Z,70.30
2018-05-08T02:44:19.476Z,70.20
2018-05-08T02:44:50.880Z,70.70
2018-05-08T02:45:22.274Z,70.10
2018-05-08T02:45:55.193Z,70.00
2018-05-08T02:46:27.344Z,70.10
2018-05-08T02:47:00.236Z,70.00
2018-05-08T02:47:32.372Z,69.90
2018-05-08T02:48:03.827Z,69.90
2018-05-08T02:48:35.228Z,69.40
2018-05-08T02:49:06.660Z,69.90
2018-05-08T02:49:38.069Z,69.90
2018-05-08T02:50:10.216Z,69.90
2018-05-08T02:50:41.615Z,69.90
2018-05-08T02:51:13.013Z,69.90
2018-05-08T02:51:45.158Z,70.10
2018-05-08T02:52:17.315Z,70.10
2018-05-08T02:52:49.493Z,70.20
2018-05-08T02:53:21.668Z,70.30
2018-05-08T02:53:53.108Z,70.30
2018-05-08T02:54:24.540Z,70.30
2018-05-08T02:54:55.941Z,70.30
2018-05-08T02:55:27.343Z,70.40
2018-05-08T02:55:58.791Z,70.40
2018-05-08T02:56:30.186Z,70.30
2018-05-08T02:57:02.325Z,70.40
2018-05-08T02:57:34.492Z,70.40
2018-05-08T02:58:05.900Z,70.40
2018-05-08T02:58:37.305Z,70.40
2018-05-08T02:59:09.449Z,70.40
2018-05-08T02:59:41.620Z,70.60
2018-05-08T03:00:13.037Z,70.50
2018-05-08T03:00:44.464Z,70.50
2018-05-08T03:01:15.868Z,70.70
2018-05-08T03:01:47.275Z,70.80
2018-05-08T03:02:19.416Z,71.00
2018-05-08T03:02:50.819Z,70.90
2018-05-08T03:03:22.215Z,71.00
2018-05-08T03:03:54.364Z,71.30
2018-05-08T03:04:26.508Z,71.40
2018-05-08T03:04:57.948Z,71.40
2018-05-08T03:05:30.104Z,71.80
2018-05-08T03:06:01.512Z,71.80
2018-05-08T03:06:33.876Z,71.80
2018-05-08T03:07:05.298Z,71.90
2018-05-08T03:07:36.701Z,72.00
2018-05-08T03:08:08.100Z,72.10
2018-05-08T03:08:39.539Z,72.10
2018-05-08T03:09:10.974Z,72.10
2018-05-08T03:09:42.376Z,72.20
2018-05-08T03:10:13.824Z,72.30
2018-05-08T03:10:45.996Z,72.50
2018-05-08T03:11:18.135Z,72.50
2018-05-08T03:11:49.563Z,72.40
2018-05-08T03:12:20.964Z,72.40
2018-05-08T03:12:52.371Z,72.30
2018-05-08T03:13:24.519Z,72.20
2018-05-08T03:13:56.655Z,72.10
2018-05-08T03:14:28.057Z,72.10
2018-05-08T03:14:59.484Z,72.10
2018-05-08T03:15:30.911Z,72.10
2018-05-08T03:16:02.345Z,72.00
2018-05-08T03:16:34.493Z,72.10
2018-05-08T03:17:05.908Z,72.00
2018-05-08T03:17:37.307Z,72.00
2018-05-08T03:18:09.447Z,72.10
2018-05-08T03:18:41.755Z,72.10
2018-05-08T03:19:13.147Z,72.10
2018-05-08T03:19:44.550Z,72.20
2018-05-08T03:20:15.948Z,72.30
2018-05-08T03:20:47.403Z,72.30
2018-05-08T03:21:18.796Z,72.40
2018-05-08T03:21:50.219Z,72.50
2018-05-08T03:22:21.684Z,72.50
2018-05-08T03:22:53.029Z,72.40
2018-05-08T03:23:24.426Z,72.30
2018-05-08T03:23:55.822Z,72.20
2018-05-08T03:24:27.248Z,72.10
2018-05-08T03:24:59.412Z,72.00
2018-05-08T03:25:30.821Z,71.90
2018-05-08T03:26:02.252Z,71.90
2018-05-08T03:26:33.643Z,71.90
2018-05-08T03:27:05.048Z,71.90
2018-05-08T03:27:36.435Z,72.10
2018-05-08T03:28:08.584Z,72.20
2018-05-08T03:28:39.989Z,72.20
2018-05-08T03:29:11.395Z,72.00
2018-05-08T03:29:43.044Z,71.80
2018-05-08T03:30:14.444Z,71.60
2018-05-08T03:30:45.842Z,71.50
2018-05-08T03:31:17.268Z,71.40
2018-05-08T03:31:49.409Z,71.50
2018-05-08T03:32:21.553Z,71.50
2018-05-08T03:32:52.971Z,71.50
2018-05-08T03:33:24.383Z,71.40
2018-05-08T03:33:55.780Z,71.50
2018-05-08T03:34:27.184Z,71.30
2018-05-08T03:34:58.615Z,71.20
2018-05-08T03:35:30.013Z,71.20
2018-05-08T03:36:02.160Z,71.00
2018-05-08T03:36:33.603Z,71.20
2018-05-08T03:37:05.003Z,71.10
2018-05-08T03:37:36.440Z,71.10
2018-05-08T03:38:07.857Z,71.10
2018-05-08T03:38:39.265Z,71.60
2018-05-08T03:39:10.659Z,71.10
2018-05-08T03:39:42.060Z,71.10
2018-05-08T03:40:13.464Z,71.20
2018-05-08T03:40:44.891Z,71.20
2018-05-08T03:41:16.294Z,71.30
2018-05-08T03:41:48.480Z,71.30
2018-05-08T03:42:19.887Z,71.30
2018-05-08T03:42:52.032Z,71.60
2018-05-08T03:43:23.434Z,71.20
2018-05-08T03:43:54.831Z,71.10
2018-05-08T03:44:26.228Z,70.90
2018-05-08T03:44:57.620Z,70.70
2018-05-08T03:45:29.746Z,70.60
2018-05-08T03:46:01.152Z,70.60
2018-05-08T03:46:32.560Z,70.50
2018-05-08T03:47:04.080Z,70.50
2018-05-08T03:47:35.476Z,70.50
2018-05-08T03:48:06.897Z,70.50
2018-05-08T03:48:39.037Z,70.60
2018-05-08T03:49:11.170Z,70.20
2018-05-08T03:49:42.588Z,70.60
2018-05-08T03:50:14.000Z,70.70
2018-05-08T03:50:45.444Z,70.80
2018-05-08T03:51:16.899Z,70.90
2018-05-08T03:51:48.291Z,71.00
2018-05-08T03:52:19.719Z,71.10
2018-05-08T03:52:51.120Z,71.10
2018-05-08T03:53:22.515Z,71.10
2018-05-08T03:53:53.916Z,71.20
2018-05-08T03:54:25.344Z,71.30
2018-05-08T03:54:56.740Z,71.30
2018-05-08T03:55:28.147Z,71.20
2018-05-08T03:55:59.570Z,71.20
2018-05-08T03:56:30.967Z,71.10
2018-05-08T03:57:03.207Z,71.10
2018-05-08T03:57:34.643Z,71.10
2018-05-08T03:58:06.088Z,70.90
2018-05-08T03:58:37.488Z,70.80
2018-05-08T03:59:09.637Z,70.60
2018-05-08T03:59:41.785Z,70.60
2018-05-08T04:00:25.379Z,70.50
2018-05-08T04:01:09.017Z,70.40
2018-05-08T04:01:53.319Z,70.30
2018-05-08T04:02:37.104Z,70.40
2018-05-08T04:03:20.860Z,70.40
2018-05-08T04:04:04.561Z,70.40
2018-05-08T04:04:48.275Z,70.90
2018-05-08T04:06:54.468Z,70.40
2018-05-08T04:07:38.960Z,71.10
2018-05-08T04:08:19.762Z,70.70
2018-05-08T04:08:51.200Z,70.80
2018-05-08T04:09:22.612Z,70.90
2018-05-08T04:09:54.013Z,70.90
2018-05-08T04:10:25.445Z,71.00
2018-05-08T04:10:56.843Z,71.10
2018-05-08T04:11:28.240Z,71.10
2018-05-08T04:11:59.639Z,71.20
2018-05-08T04:12:31.027Z,71.40
2018-05-08T04:13:02.469Z,71.40
2018-05-08T04:13:33.868Z,71.50
2018-05-08T04:14:05.267Z,71.40
2018-05-08T04:14:36.700Z,72.00
2018-05-08T04:15:08.863Z,71.40
2018-05-08T04:15:41.037Z,71.40
2018-05-08T04:16:13.172Z,71.40
2018-05-08T04:16:44.576Z,71.40
2018-05-08T04:17:15.984Z,71.40
2018-05-08T04:17:48.149Z,71.40
2018-05-08T04:18:20.312Z,71.40
2018-05-08T04:18:51.901Z,71.40
2018-05-08T04:19:23.305Z,71.50
2018-05-08T04:19:54.708Z,71.50
2018-05-08T04:20:26.863Z,72.10
2018-05-08T04:20:58.315Z,71.70
2018-05-08T04:21:29.687Z,71.70
2018-05-08T04:22:01.104Z,71.80
2018-05-08T04:22:32.493Z,71.90
2018-05-08T04:23:03.900Z,71.90
2018-05-08T04:23:35.333Z,71.90
2018-05-08T04:24:07.480Z,72.30
2018-05-08T04:24:38.912Z,72.30
2018-05-08T04:25:10.308Z,72.40
2018-05-08T04:25:41.716Z,72.50
2018-05-08T04:26:13.856Z,72.70
2018-05-08T04:26:45.281Z,72.70
2018-05-08T04:27:18.628Z,72.60
2018-05-08T04:27:50.027Z,72.50
2018-05-08T04:28:21.428Z,72.40
2018-05-08T04:28:52.851Z,72.40
2018-05-08T04:29:24.279Z,72.40
2018-05-08T04:29:56.412Z,72.50
2018-05-08T04:30:27.832Z,72.50
2018-05-08T04:30:59.232Z,72.40
2018-05-08T04:31:30.647Z,72.40
2018-05-08T04:32:02.085Z,72.50
2018-05-08T04:32:33.497Z,72.50
2018-05-08T04:33:04.908Z,72.60
2018-05-08T04:33:36.321Z,72.60
2018-05-08T04:34:08.511Z,72.50
2018-05-08T04:34:39.914Z,72.50
2018-05-08T04:35:11.307Z,72.60
2018-05-08T04:35:42.704Z,71.60
2018-05-08T04:36:14.844Z,71.60
2018-05-08T04:36:46.247Z,71.40
2018-05-08T04:37:17.653Z,71.60
2018-05-08T04:37:49.795Z,71.70
2018-05-08T04:38:21.935Z,71.70
2018-05-08T04:38:53.328Z,71.70
2018-05-08T04:39:24.762Z,71.80
2018-05-08T04:39:56.156Z,72.00
2018-05-08T04:40:27.579Z,72.00
2018-05-08T04:40:58.981Z,72.00
2018-05-08T04:41:31.148Z,71.80
2018-05-08T04:42:02.579Z,71.80
2018-05-08T04:42:34.008Z,71.90
2018-05-08T04:43:06.174Z,71.90
2018-05-08T04:43:38.312Z,71.80
2018-05-08T04:44:10.472Z,71.90
2018-05-08T04:44:41.923Z,71.90
2018-05-08T04:45:14.073Z,72.50
2018-05-08T04:45:45.492Z,71.80
2018-05-08T04:46:16.891Z,71.60
2018-05-08T04:46:48.297Z,71.50
2018-05-08T04:47:19.693Z,71.40
2018-05-08T04:47:51.115Z,71.40
2018-05-08T04:48:22.516Z,71.40
2018-05-08T04:48:53.908Z,71.30
2018-05-08T04:49:25.299Z,71.30
2018-05-08T04:49:56.735Z,71.10
2018-05-08T04:50:28.144Z,70.90
2018-05-08T04:50:59.564Z,70.80
2018-05-08T04:51:30.984Z,70.50
2018-05-08T04:52:03.131Z,70.40
2018-05-08T04:52:34.545Z,70.30
2018-05-08T04:53:05.964Z,70.20
2018-05-08T04:53:37.387Z,70.00
2018-05-08T04:54:09.536Z,69.70
2018-05-08T04:54:41.683Z,69.60
2018-05-08T04:55:13.116Z,69.60
2018-05-08T04:55:44.512Z,69.20
2018-05-08T04:56:15.924Z,68.80
2018-05-08T04:56:48.056Z,68.40
2018-05-08T04:57:19.456Z,68.40
2018-05-08T04:57:50.911Z,68.40
2018-05-08T04:58:22.304Z,68.60
2018-05-08T04:58:54.440Z,68.60
2018-05-08T04:59:25.847Z,68.50
2018-05-08T04:59:57.244Z,68.20
2018-05-08T05:00:29.415Z,68.10
2018-05-08T05:01:00.844Z,68.10
2018-05-08T05:01:32.990Z,67.70
2018-05-08T05:02:04.391Z,67.60
2018-05-08T05:02:35.815Z,68.30
2018-05-08T05:03:07.207Z,67.60
2018-05-08T05:03:38.624Z,67.80
2018-05-08T05:04:10.017Z,67.80
2018-05-08T05:04:41.424Z,67.50
2018-05-08T05:05:12.842Z,67.30
2018-05-08T05:05:44.300Z,67.50
2018-05-08T05:06:15.700Z,67.20
2018-05-08T05:06:47.120Z,67.30
2018-05-08T05:07:19.257Z,67.50
2018-05-08T05:07:50.659Z,67.50
2018-05-08T05:08:22.064Z,67.60
2018-05-08T05:08:54.215Z,67.60
2018-05-08T05:09:26.364Z,67.30
2018-05-08T05:09:59.239Z,67.30
2018-05-08T05:10:32.121Z,67.50
2018-05-08T05:11:04.365Z,67.40
2018-05-08T05:11:35.745Z,67.40
2018-05-08T05:12:07.168Z,67.10
2018-05-08T05:12:38.564Z,66.70
2018-05-08T05:13:10.000Z,66.50
2018-05-08T05:13:41.414Z,66.20
2018-05-08T05:14:13.576Z,65.80
2018-05-08T05:14:45.721Z,65.60
2018-05-08T05:15:17.864Z,65.30
2018-05-08T05:15:49.267Z,65.30
2018-05-08T05:16:20.717Z,65.20
2018-05-08T05:16:52.115Z,64.30
2018-05-08T05:17:24.264Z,61.50
2018-05-08T05:17:56.436Z,59.60
2018-05-08T05:18:27.831Z,59.40
2018-05-08T05:18:59.331Z,58.40
2018-05-08T05:19:30.732Z,57.20
2018-05-08T05:20:03.616Z,54.90
2018-05-08T05:20:35.756Z,53.70
2018-05-08T05:21:07.192Z,53.60
2018-05-08T05:21:38.686Z,52.80
2018-05-08T05:22:10.088Z,52.20
2018-05-08T05:22:41.509Z,51.00
2018-05-08T05:23:12.928Z,49.20
2018-05-08T05:23:44.339Z,48.30
2018-05-08T05:24:16.495Z,47.30
2018-05-08T05:24:48.651Z,46.50
2018-05-08T05:25:20.787Z,45.70
2018-05-08T05:25:52.192Z,45.70
2018-05-08T05:26:23.592Z,46.00
2018-05-08T05:26:55.763Z,45.70
2018-05-08T05:27:27.197Z,45.80
2018-05-08T05:27:59.337Z,44.80
2018-05-08T05:28:30.732Z,44.80
2018-05-08T05:29:02.185Z,44.70
2018-05-08T05:29:33.591Z,44.40
2018-05-08T05:30:05.012Z,43.80
2018-05-08T05:30:37.356Z,43.40
2018-05-08T05:31:08.775Z,43.40
2018-05-08T05:31:40.241Z,43.60
2018-05-08T05:32:11.661Z,43.00
2018-05-08T05:32:43.082Z,42.10
2018-05-08T05:33:14.483Z,42.00
2018-05-08T05:33:46.630Z,41.70
2018-05-08T05:34:18.033Z,41.80
2018-05-08T05:34:49.436Z,42.30
2018-05-08T05:35:20.849Z,42.10
2018-05-08T05:35:52.336Z,41.80
2018-05-08T05:36:23.747Z,41.40
2018-05-08T05:36:55.927Z,41.50
2018-05-08T05:37:28.508Z,42.00
2018-05-08T05:37:59.904Z,41.90
2018-05-08T05:38:31.308Z,41.60
2018-05-08T05:39:02.784Z,41.20
2018-05-08T05:39:34.960Z,40.80
2018-05-08T05:40:06.380Z,40.70
2018-05-08T05:40:37.795Z,40.30
2018-05-08T05:41:09.240Z,40.10
2018-05-08T05:41:40.649Z,40.30
2018-05-08T05:42:12.795Z,40.90
2018-05-08T05:42:44.996Z,40.30
2018-05-08T05:43:16.396Z,40.30
2018-05-08T05:43:48.580Z,39.90
2018-05-08T05:44:19.980Z,40.00
2018-05-08T05:44:51.380Z,40.40
2018-05-08T05:45:22.815Z,40.00
2018-05-08T05:45:54.231Z,39.80
2018-05-08T05:46:26.367Z,40.20
2018-05-08T05:46:57.767Z,40.20
2018-05-08T05:47:29.176Z,40.90
2018-05-08T05:48:01.359Z,40.50
2018-05-08T05:48:32.798Z,40.40
2018-05-08T05:49:04.204Z,41.00
2018-05-08T05:49:35.599Z,41.70
2018-05-08T05:50:06.995Z,41.90
2018-05-08T05:50:39.143Z,41.20
2018-05-08T05:51:11.287Z,40.80
2018-05-08T05:51:42.692Z,40.70
2018-05-08T05:52:14.096Z,41.10
2018-05-08T05:52:45.497Z,40.30
2018-05-08T05:53:16.961Z,40.30
2018-05-08T05:53:48.352Z,40.40
2018-05-08T05:54:19.811Z,40.50
2018-05-08T05:54:51.224Z,40.30
2018-05-08T05:55:22.640Z,40.60
2018-05-08T05:55:54.063Z,40.00
2018-05-08T05:56:26.212Z,40.50
2018-05-08T05:56:57.623Z,40.50
2018-05-08T05:57:29.033Z,41.50
2018-05-08T05:58:01.187Z,40.50
2018-05-08T05:58:33.378Z,39.50
2018-05-08T05:59:04.784Z,39.50
2018-05-08T05:59:36.939Z,40.30
2018-05-08T06:00:08.430Z,40.30
2018-05-08T06:00:39.780Z,40.30
2018-05-08T06:01:11.214Z,40.90
2018-05-08T06:01:42.640Z,41.60
2018-05-08T06:02:14.043Z,42.10
2018-05-08T06:02:46.185Z,43.10
2018-05-08T06:03:17.584Z,43.00
2018-05-08T06:03:49.031Z,43.50
2018-05-08T06:04:20.430Z,44.30
2018-05-08T06:04:51.836Z,44.70
2018-05-08T06:05:23.296Z,45.60
2018-05-08T06:05:54.709Z,46.30
2018-05-08T06:06:26.165Z,46.30
2018-05-08T06:06:57.556Z,46.70
2018-05-08T06:07:29.743Z,47.40
2018-05-08T06:08:01.140Z,47.40
2018-05-08T06:08:32.535Z,47.50
2018-05-08T06:09:04.840Z,47.30
2018-05-08T06:09:36.244Z,47.40
2018-05-08T06:10:07.647Z,47.70
2018-05-08T06:10:39.796Z,49.60
2018-05-08T06:11:11.940Z,50.00
2018-05-08T06:11:44.124Z,50.40
2018-05-08T06:12:16.264Z,50.00
2018-05-08T06:12:47.663Z,49.90
2018-05-08T06:13:19.068Z,50.50
2018-05-08T06:13:51.199Z,51.60
2018-05-08T06:14:22.640Z,51.60
2018-05-08T06:14:54.067Z,52.30
2018-05-08T06:15:25.472Z,51.70
2018-05-08T06:15:56.887Z,51.70
2018-05-08T06:16:28.300Z,51.50
2018-05-08T06:16:59.700Z,51.00
2018-05-08T06:17:31.123Z,51.00
2018-05-08T06:18:03.300Z,51.70
2018-05-08T06:18:34.703Z,51.80
2018-05-08T06:19:06.223Z,52.40
2018-05-08T06:19:37.648Z,52.40
2018-05-08T06:20:09.054Z,52.80
2018-05-08T06:20:40.456Z,52.40
2018-05-08T06:21:11.855Z,52.20
2018-05-08T06:21:43.268Z,52.60
2018-05-08T06:22:15.404Z,51.80
2018-05-08T06:22:46.816Z,51.80
2018-05-08T06:23:18.220Z,52.30
2018-05-08T06:23:49.624Z,52.70
2018-05-08T06:24:21.038Z,52.30
2018-05-08T06:24:52.464Z,52.60
2018-05-08T06:25:23.869Z,53.30
2018-05-08T06:25:56.052Z,53.80
2018-05-08T06:26:27.468Z,53.80
2018-05-08T06:26:59.613Z,53.00
2018-05-08T06:27:31.007Z,52.90
2018-05-08T06:28:02.415Z,52.90
2018-05-08T06:28:34.567Z,53.70
2018-05-08T06:29:06.743Z,52.50
2018-05-08T06:29:38.155Z,52.60
2018-05-08T06:30:09.585Z,51.70
2018-05-08T06:30:41.757Z,52.60
2018-05-08T06:31:13.916Z,52.90
2018-05-08T06:31:45.312Z,52.80
2018-05-08T06:32:16.719Z,52.90
2018-05-08T06:32:48.145Z,53.10
2018-05-08T06:33:19.548Z,52.90
2018-05-08T06:33:50.968Z,52.40
2018-05-08T06:34:22.388Z,52.60
2018-05-08T06:34:53.796Z,53.10
2018-05-08T06:35:25.272Z,53.40
2018-05-08T06:35:56.687Z,53.80
2018-05-08T06:36:28.120Z,54.40
2018-05-08T06:36:59.523Z,54.60
2018-05-08T06:37:30.953Z,55.10
2018-05-08T06:38:02.380Z,54.10
2018-05-08T06:38:33.833Z,53.50
2018-05-08T06:39:05.280Z,53.60
2018-05-08T06:39:36.852Z,53.30
2018-05-08T06:40:08.231Z,53.40
2018-05-08T06:40:39.619Z,53.60
2018-05-08T06:41:11.028Z,53.60
2018-05-08T06:41:43.173Z,52.30
2018-05-08T06:42:14.572Z,52.30
2018-05-08T06:42:45.968Z,53.00
2018-05-08T06:43:18.111Z,51.90
2018-05-08T06:43:49.516Z,52.00
2018-05-08T06:44:20.999Z,53.10
2018-05-08T06:44:52.352Z,52.90
2018-05-08T06:45:23.793Z,53.10
2018-05-08T06:45:55.980Z,52.60
2018-05-08T06:46:27.401Z,52.60
2018-05-08T06:46:59.557Z,52.40
2018-05-08T06:47:31.713Z,53.00
2018-05-08T06:48:03.875Z,53.30
2018-05-08T06:48:36.011Z,53.60
2018-05-08T06:49:07.417Z,53.60
2018-05-08T06:49:38.835Z,53.30
2018-05-08T06:50:10.244Z,53.20
2018-05-08T06:50:41.646Z,52.80